createdAt,value
2023-08-02T00:00:54.625Z,16.10
2023-08-02T00:05:44.958Z,11.60
2023-08-02T00:10:34.914Z,10.00
2023-08-02T00:15:25.830Z,7.70
2023-08-02T00:20:19.842Z,7.93
2023-08-02T00:25:10.452Z,12.85
2023-08-02T00:30:01.663Z,10.40
2023-08-02T00:34:56.084Z,9.10
2023-08-02T00:39:53.365Z,10.65
2023-08-02T00:44:43.312Z,13.48
2023-08-02T00:49:33.344Z,13.50
2023-08-02T00:54:23.277Z,14.50
2023-08-02T00:59:16.010Z,13.10
2023-08-02T01:04:06.047Z,12.30
2023-08-02T01:09:03.369Z,17.27
2023-08-02T01:13:55.896Z,12.15
2023-08-02T01:18:48.545Z,15.43
2023-08-02T01:23:43.923Z,15.13
2023-08-02T01:28:39.840Z,8.23
2023-08-02T01:33:31.493Z,15.35
2023-08-02T01:38:21.844Z,13.30
2023-08-02T01:43:14.789Z,8.70
2023-08-02T01:48:05.629Z,12.07
2023-08-02T01:52:55.644Z,10.68
2023-08-02T01:57:45.706Z,11.85
2023-08-02T02:02:38.633Z,11.38
2023-08-02T02:07:28.755Z,7.13
2023-08-02T02:12:19.016Z,14.25
2023-08-02T02:17:09.751Z,10.07
2023-08-02T02:22:05.784Z,12.70
2023-08-02T02:26:55.871Z,14.98
2023-08-02T02:31:45.968Z,11.48
2023-08-02T02:36:36.109Z,12.63
2023-08-02T02:41:28.611Z,12.77
2023-08-02T02:46:21.790Z,15.80
2023-08-02T02:51:11.875Z,11.32
2023-08-02T02:56:02.960Z,13.10
2023-08-02T03:00:57.888Z,14.57
2023-08-02T03:05:48.925Z,13.40
2023-08-02T03:10:38.980Z,11.23
2023-08-02T03:15:28.924Z,9.68
2023-08-02T03:20:22.078Z,10.38
2023-08-02T03:25:12.449Z,9.75
2023-08-02T03:30:02.410Z,15.70
2023-08-02T03:34:52.373Z,14.18
2023-08-02T03:39:44.939Z,7.70
2023-08-02T03:44:35.045Z,11.43
2023-08-02T03:49:25.098Z,8.93
2023-08-02T03:54:15.168Z,12.10
2023-08-02T03:59:07.986Z,10.00
2023-08-02T04:03:57.962Z,10.35
2023-08-02T04:08:47.898Z,10.88
2023-08-02T04:13:38.280Z,10.63
2023-08-02T04:18:31.611Z,10.85
2023-08-02T04:23:21.633Z,10.60
2023-08-02T04:28:11.675Z,8.45
2023-08-02T04:33:02.032Z,9.77
2023-08-02T04:37:55.300Z,8.95
2023-08-02T04:42:45.351Z,8.90
2023-08-02T04:47:35.388Z,8.10
2023-08-02T04:52:25.317Z,9.77
2023-08-02T04:57:17.939Z,9.02
2023-08-02T05:02:08.210Z,11.90
2023-08-02T05:06:58.484Z,11.93
2023-08-02T05:11:48.837Z,11.10
2023-08-02T05:16:41.514Z,10.52
2023-08-02T05:21:31.556Z,9.50
2023-08-02T05:26:23.006Z,8.18
2023-08-02T05:31:18.551Z,9.55
2023-08-02T05:36:16.329Z,11.27
2023-08-02T05:41:06.765Z,9.07
2023-08-02T05:45:57.226Z,9.50
2023-08-02T05:50:47.274Z,8.55
2023-08-02T05:55:39.968Z,6.75
2023-08-02T06:00:30.118Z,8.10
2023-08-02T06:05:20.473Z,11.55
2023-08-02T06:10:11.233Z,5.00
2023-08-02T06:15:03.851Z,5.53
2023-08-02T06:19:53.892Z,6.07
2023-08-02T06:24:45.223Z,5.18
2023-08-02T06:29:35.280Z,4.40
2023-08-02T06:34:30.393Z,4.38
2023-08-02T06:39:22.296Z,4.03
2023-08-02T06:44:12.468Z,4.35
2023-08-02T06:49:02.594Z,6.38
2023-08-02T06:53:59.161Z,3.28
2023-08-02T06:58:49.322Z,3.95
2023-08-02T07:03:39.468Z,4.57
2023-08-02T07:08:29.576Z,3.25
2023-08-02T07:13:22.210Z,4.47
2023-08-02T07:18:12.339Z,3.47
2023-08-02T07:23:02.536Z,4.10
2023-08-02T07:27:53.458Z,3.63
2023-08-02T07:32:46.250Z,2.35
2023-08-02T07:37:36.451Z,3.83
2023-08-02T07:42:26.706Z,2.70
2023-08-02T07:47:16.840Z,3.45
2023-08-02T07:52:10.269Z,2.47
2023-08-02T07:57:00.459Z,3.25
2023-08-02T08:01:50.724Z,2.40
2023-08-02T08:06:41.038Z,2.28
2023-08-02T08:11:36.186Z,2.85
2023-08-02T08:16:26.535Z,2.83
2023-08-02T08:21:16.693Z,2.53
2023-08-02T08:26:07.145Z,2.47
2023-08-02T08:31:05.477Z,3.65
2023-08-02T08:35:55.576Z,4.55
2023-08-02T08:40:45.896Z,4.78
2023-08-02T08:45:37.626Z,4.30
2023-08-02T08:50:31.500Z,5.88
2023-08-02T08:55:22.060Z,4.00
2023-08-02T09:00:18.175Z,3.30
2023-08-02T09:10:02.750Z,4.55
2023-08-02T09:15:06.135Z,4.10
2023-08-02T09:20:10.878Z,4.53
2023-08-02T09:25:04.857Z,4.30
2023-08-02T09:29:56.773Z,3.88
2023-08-02T09:34:48.860Z,4.80
2023-08-02T09:39:39.040Z,2.47
2023-08-02T09:44:32.890Z,4.03
2023-08-02T09:49:25.022Z,4.00
2023-08-02T09:54:16.547Z,2.67
2023-08-02T09:59:07.745Z,3.55
2023-08-02T10:04:02.843Z,2.10
2023-08-02T10:08:54.391Z,1.80
2023-08-02T10:13:47.521Z,2.75
2023-08-02T10:18:40.185Z,2.35
2023-08-02T10:23:34.244Z,4.28
2023-08-02T10:28:24.983Z,4.65
2023-08-02T10:33:22.479Z,7.38
2023-08-02T10:38:12.912Z,6.32
2023-08-02T10:43:10.559Z,6.80
2023-08-02T10:48:27.158Z,7.60
2023-08-02T10:53:17.293Z,8.40
2023-08-02T10:58:10.150Z,12.18
2023-08-02T11:03:00.290Z,6.88
2023-08-02T11:08:03.432Z,9.43
2023-08-02T11:12:56.311Z,5.47
2023-08-02T11:17:54.537Z,6.80
2023-08-02T11:22:45.212Z,4.20
2023-08-02T11:32:28.895Z,8.95
2023-08-02T11:37:22.050Z,2.22
2023-08-02T11:42:12.161Z,8.50
2023-08-02T11:47:02.585Z,5.80
2023-08-02T11:51:52.718Z,6.25
2023-08-02T11:56:46.757Z,4.78
2023-08-02T12:01:37.181Z,6.18
2023-08-02T12:06:28.205Z,5.05
2023-08-02T12:11:18.507Z,7.68
2023-08-02T12:16:15.237Z,6.65
2023-08-02T12:21:18.876Z,4.97
2023-08-02T12:26:08.989Z,5.90
2023-08-02T12:31:08.993Z,5.18
2023-08-02T12:36:01.775Z,4.57
2023-08-02T12:40:51.899Z,5.60
2023-08-02T12:45:41.979Z,3.72
2023-08-02T12:50:32.140Z,1.92
2023-08-02T12:55:25.221Z,5.35
2023-08-02T13:00:16.223Z,2.25
2023-08-02T13:05:08.081Z,3.55
2023-08-02T13:09:58.283Z,5.75
2023-08-02T13:14:51.017Z,3.58
2023-08-02T13:19:41.518Z,5.38
2023-08-02T13:24:31.642Z,5.45
2023-08-02T13:29:23.274Z,7.22
2023-08-02T13:34:16.929Z,5.93
2023-08-02T13:39:07.204Z,14.85
2023-08-02T13:43:57.376Z,11.07
2023-08-02T13:48:48.935Z,16.02
2023-08-02T13:53:41.679Z,15.50
2023-08-02T13:58:32.280Z,14.32
2023-08-02T14:03:22.429Z,14.65
2023-08-02T14:08:12.686Z,14.73
2023-08-02T14:13:05.318Z,19.15
2023-08-02T14:17:55.682Z,14.70
2023-08-02T14:22:47.004Z,13.55
2023-08-02T14:27:39.004Z,11.35
2023-08-02T14:32:31.775Z,16.40
2023-08-02T14:37:24.378Z,7.28
2023-08-02T14:42:16.829Z,7.53
2023-08-02T14:47:07.511Z,15.73
2023-08-02T14:52:06.337Z,9.15
2023-08-02T14:56:57.160Z,11.07
2023-08-02T15:01:47.338Z,10.00
2023-08-02T15:06:37.507Z,9.68
2023-08-02T15:11:30.353Z,9.77
2023-08-02T15:16:20.875Z,11.98
2023-08-02T15:21:11.238Z,12.35
2023-08-02T15:26:01.416Z,10.57
2023-08-02T15:30:54.269Z,11.02
2023-08-02T15:35:45.364Z,12.70
2023-08-02T15:40:36.227Z,11.40
2023-08-02T15:45:27.062Z,11.25
2023-08-02T15:50:22.385Z,7.78
2023-08-02T15:55:14.166Z,7.38
2023-08-02T16:00:04.356Z,12.35
2023-08-02T16:05:01.685Z,8.82
2023-08-02T16:09:55.023Z,7.57
2023-08-02T16:14:47.739Z,8.23
2023-08-02T16:19:38.490Z,7.38
2023-08-02T16:24:28.512Z,8.57
2023-08-02T16:29:21.720Z,9.57
2023-08-02T16:34:11.833Z,6.32
2023-08-02T16:39:02.242Z,5.70
2023-08-02T16:43:53.555Z,9.18
2023-08-02T16:48:46.456Z,5.55
2023-08-02T16:53:36.931Z,4.90
2023-08-02T16:58:27.307Z,10.02
2023-08-02T17:03:18.397Z,6.43
2023-08-02T17:08:11.547Z,9.20
2023-08-02T17:13:06.721Z,10.50
2023-08-02T17:17:56.757Z,7.40
2023-08-02T17:22:46.937Z,9.18
2023-08-02T17:27:39.748Z,9.68
2023-08-02T17:32:29.801Z,10.02
2023-08-02T17:37:19.934Z,9.77
2023-08-02T17:42:10.669Z,7.82
2023-08-02T17:47:03.507Z,8.50
2023-08-02T17:51:53.542Z,8.30
2023-08-02T17:56:43.716Z,8.05
2023-08-02T18:01:33.750Z,9.70
2023-08-02T18:06:28.561Z,4.68
2023-08-02T18:11:23.155Z,6.97
2023-08-02T18:16:13.479Z,8.20
2023-08-02T18:21:04.638Z,4.78
2023-08-02T18:25:57.207Z,7.38
2023-08-02T18:30:47.289Z,4.90
2023-08-02T18:35:37.375Z,6.43
2023-08-02T18:40:27.374Z,7.18
2023-08-02T18:45:20.415Z,4.95
2023-08-02T18:50:11.664Z,3.58
2023-08-02T18:55:03.497Z,3.85
2023-08-02T18:59:53.582Z,6.20
2023-08-02T19:04:46.350Z,4.65
2023-08-02T19:09:37.430Z,4.00
2023-08-02T19:14:27.377Z,5.30
2023-08-02T19:19:24.937Z,3.08
2023-08-02T19:24:17.665Z,6.30
2023-08-02T19:29:07.625Z,7.97
2023-08-02T19:33:57.709Z,4.53
2023-08-02T19:38:47.661Z,5.07
2023-08-02T19:43:40.340Z,5.82
2023-08-02T19:48:31.670Z,9.80
2023-08-02T19:53:23.788Z,5.43
2023-08-02T19:58:14.292Z,6.22
2023-08-02T20:03:08.406Z,9.93
2023-08-02T20:07:58.400Z,4.35
2023-08-02T20:12:48.376Z,4.18
2023-08-02T20:17:38.699Z,5.88
2023-08-02T20:22:31.412Z,5.68
2023-08-02T20:27:21.422Z,4.45
2023-08-02T20:32:18.533Z,2.83
2023-08-02T20:37:18.040Z,7.18
2023-08-02T20:42:14.376Z,7.95
2023-08-02T20:47:05.538Z,7.32
2023-08-02T20:51:59.518Z,5.10
2023-08-02T20:56:52.026Z,6.55
2023-08-02T21:01:46.764Z,5.22
2023-08-02T21:06:38.355Z,6.43
2023-08-02T21:11:30.758Z,4.78
2023-08-02T21:16:21.008Z,3.72
2023-08-02T21:21:17.356Z,7.85
2023-08-02T21:26:07.408Z,5.10
2023-08-02T21:30:59.671Z,7.10
2023-08-02T21:35:51.772Z,5.35
2023-08-02T21:40:44.580Z,6.75
2023-08-02T21:45:35.349Z,4.05
2023-08-02T21:50:29.594Z,4.30
2023-08-02T21:55:20.913Z,4.07
2023-08-02T22:00:15.397Z,2.60
2023-08-02T22:05:05.707Z,6.97
2023-08-02T22:09:57.896Z,2.63
2023-08-02T22:14:48.290Z,4.10
2023-08-02T22:19:41.003Z,5.55
2023-08-02T22:24:31.201Z,5.75
2023-08-02T22:29:21.198Z,4.35
2023-08-02T22:34:22.923Z,3.97
2023-08-02T22:39:15.906Z,5.35
2023-08-02T22:44:06.023Z,8.07
2023-08-02T22:50:19.363Z,5.68
2023-08-02T22:54:06.509Z,5.25
2023-08-02T22:59:02.347Z,7.45
2023-08-02T23:03:52.649Z,6.90
2023-08-02T23:08:42.878Z,9.82
2023-08-02T23:13:35.379Z,6.20
2023-08-02T23:18:35.304Z,9.90
2023-08-02T23:23:28.418Z,6.85
2023-08-02T23:28:18.667Z,14.10
2023-08-02T23:33:13.372Z,12.52
2023-08-02T23:38:05.907Z,12.43
2023-08-02T23:42:55.953Z,14.32
2023-08-02T23:47:45.963Z,13.88
2023-08-02T23:52:35.998Z,13.13
2023-08-02T23:57:28.594Z,12.73
